Time;durP1;ratioP1;P1;durP2;ratioP2;P2;SDS_P1;SDS_P2;PMS_P1;PMS_P2;Temp;Humidity;BMP_temperature;BMP_pressure;BME280_temperature;BME280_humidity;BME280_pressure;Samples;Min_cycle;Max_cycle;Signal;HPM_P1;HPM_P2
2022/03/28 00:02:01;;;;;;;115.20;104.70;;;10.70;69.70;;;;;;5033074;28;20046;-73
2022/03/28 00:04:29;;;;;;;115.60;105.20;;;10.70;70.00;;;;;;5032953;28;20057;-74
2022/03/28 00:06:56;;;;;;;115.50;105.03;;;10.70;70.10;;;;;;5032984;28;20100;-73
2022/03/28 00:09:23;;;;;;;114.82;104.22;;;10.60;71.00;;;;;;5033013;28;20826;-73
2022/03/28 00:11:50;;;;;;;115.22;104.82;;;10.60;71.00;;;;;;5034354;28;20056;-73
2022/03/28 00:14:16;;;;;;;114.95;104.47;;;10.60;71.50;;;;;;5033843;28;20054;-73
2022/03/28 00:16:43;;;;;;;115.57;105.07;;;10.60;71.80;;;;;;5032959;28;20054;-73
2022/03/28 00:19:10;;;;;;;116.13;105.43;;;10.60;72.00;;;;;;5032789;28;20056;-74
2022/03/28 00:21:38;;;;;;;116.05;105.60;;;10.60;72.30;;;;;;5032922;28;20499;-73
2022/03/28 00:24:06;;;;;;;116.18;105.50;;;10.60;72.80;;;;;;5032701;28;20054;-73
2022/03/28 00:26:33;;;;;;;116.95;106.25;;;10.60;72.80;;;;;;5032266;28;20193;-73
2022/03/28 00:29:00;;;;;;;115.57;105.07;;;10.60;73.10;;;;;;5032563;28;20050;-73
2022/03/28 00:31:27;;;;;;;117.40;106.80;;;10.60;73.30;;;;;;5033619;28;21636;-73
2022/03/28 00:33:54;;;;;;;116.32;105.72;;;10.60;73.50;;;;;;5053664;28;20053;-73
2022/03/28 00:36:21;;;;;;;116.10;105.55;;;10.60;73.80;;;;;;5052380;28;20170;-73
2022/03/28 00:38:51;;;;;;;116.35;105.80;;;10.60;74.10;;;;;;5052087;28;20057;-73
2022/03/28 00:41:18;;;;;;;115.82;105.22;;;10.60;74.50;;;;;;5053968;28;20057;-73
2022/03/28 00:43:54;;;;;;;116.50;105.90;;;10.60;74.70;;;;;;5053506;28;20058;-73
2022/03/28 00:46:21;;;;;;;116.68;106.03;;;10.60;75.00;;;;;;5052543;28;20045;-73
2022/03/28 00:48:48;;;;;;;117.03;106.22;;;10.60;74.90;;;;;;5053430;28;20051;-73
2022/03/28 00:51:16;;;;;;;117.38;106.68;;;10.60;75.30;;;;;;5052400;28;20104;-73
2022/03/28 00:53:44;;;;;;;117.88;107.05;;;10.60;75.80;;;;;;5051948;28;20053;-73
2022/03/28 00:56:13;;;;;;;118.80;107.90;;;10.50;75.80;;;;;;5052300;28;20058;-73
2022/03/28 00:58:40;;;;;;;117.35;106.57;;;10.50;76.10;;;;;;5053275;28;20480;-73
2022/03/28 01:01:09;;;;;;;117.25;106.55;;;10.50;76.50;;;;;;5051504;28;20056;-73
2022/03/28 01:03:36;;;;;;;115.90;105.30;;;10.50;76.40;;;;;;5051728;28;20543;-73
2022/03/28 01:06:03;;;;;;;122.70;111.50;;;10.50;76.80;;;;;;5049705;28;20057;-74
2022/03/28 01:08:32;;;;;;;116.68;105.88;;;10.40;76.90;;;;;;5032333;28;20097;-73
2022/03/28 01:11:02;;;;;;;118.55;107.70;;;10.40;77.00;;;;;;5033199;28;20050;-73
2022/03/28 01:13:32;;;;;;;117.43;106.72;;;10.50;76.90;;;;;;5031765;28;20046;-73
2022/03/28 01:15:59;;;;;;;117.35;106.63;;;10.50;77.30;;;;;;5033134;28;20073;-73
2022/03/28 01:18:25;;;;;;;119.05;108.10;;;10.50;77.30;;;;;;5031596;28;20054;-74
2022/03/28 01:20:54;;;;;;;;;;;10.40;77.40;;;;;;5033558;28;20086;-73
2022/03/28 01:23:21;;;;;;;118.18;107.18;;;10.50;75.20;;;;;;5032287;28;19926;-73
2022/03/28 01:25:51;;;;;;;117.50;106.40;;;10.50;77.20;;;;;;5035358;28;20438;-73
2022/03/28 01:28:18;;;;;;;117.47;106.68;;;10.50;78.00;;;;;;5032447;28;20133;-73
2022/03/28 01:30:45;;;;;;;118.10;107.25;;;10.50;78.20;;;;;;5032320;28;20050;-73
2022/03/28 01:33:12;;;;;;;119.82;108.72;;;10.50;78.40;;;;;;5031545;28;20482;-73
2022/03/28 01:35:41;;;;;;;118.82;107.85;;;10.50;78.60;;;;;;5032024;28;20058;-73
2022/03/28 01:38:12;;;;;;;119.20;108.10;;;10.40;79.00;;;;;;5048162;28;20171;-73
2022/03/28 01:40:42;;;;;;;122.00;110.80;;;10.50;79.30;;;;;;5031824;28;20500;-73
2022/03/28 01:43:09;;;;;;;121.43;110.22;;;10.50;79.60;;;;;;5048081;28;20507;-73
2022/03/28 01:45:37;;;;;;;121.50;110.30;;;10.40;79.60;;;;;;5051865;28;20056;-73
2022/03/28 01:48:04;;;;;;;121.38;110.18;;;10.50;79.90;;;;;;5052819;28;20049;-73
2022/03/28 01:50:31;;;;;;;122.18;110.88;;;10.40;80.00;;;;;;5053039;28;20060;-73
2022/03/28 01:52:58;;;;;;;121.57;110.28;;;10.50;80.20;;;;;;5053278;28;20049;-73
2022/03/28 01:55:26;;;;;;;121.97;110.68;;;10.40;80.30;;;;;;5052851;28;20046;-73
2022/03/28 01:57:54;;;;;;;124.10;112.32;;;10.50;80.60;;;;;;5051302;28;20053;-73
2022/03/28 02:00:23;;;;;;;123.40;111.95;;;10.40;80.60;;;;;;5052304;28;20058;-73
2022/03/28 02:02:50;;;;;;;125.00;112.90;;;10.50;81.40;;;;;;5052733;28;20052;-73
2022/03/28 02:05:17;;;;;;;125.07;112.10;;;10.40;81.00;;;;;;5054682;28;20529;-73
2022/03/28 02:07:47;;;;;;;124.53;112.32;;;10.40;81.20;;;;;;5055731;28;20057;-73
2022/03/28 02:10:16;;;;;;;125.25;113.65;;;10.40;81.10;;;;;;5055868;28;20511;-73
2022/03/28 02:12:44;;;;;;;124.22;112.75;;;10.40;81.20;;;;;;5054344;28;20058;-73
2022/03/28 02:15:12;;;;;;;123.43;111.00;;;10.40;81.40;;;;;;5055794;28;20049;-73
2022/03/28 02:17:39;;;;;;;121.95;110.53;;;10.40;81.50;;;;;;5053935;28;20049;-73
2022/03/28 02:20:10;;;;;;;121.22;109.95;;;10.40;82.00;;;;;;5055720;28;20057;-73
2022/03/28 02:22:37;;;;;;;123.80;111.82;;;10.40;81.80;;;;;;5054397;28;20119;-73
2022/03/28 02:25:07;;;;;;;123.22;110.82;;;10.30;82.20;;;;;;5054826;28;20057;-73
2022/03/28 02:27:34;;;;;;;124.82;112.30;;;10.30;82.50;;;;;;5054381;28;20648;-73
2022/03/28 02:30:02;;;;;;;123.78;112.22;;;10.30;82.60;;;;;;5054346;28;20673;-73
2022/03/28 02:32:29;;;;;;;123.60;111.85;;;10.30;82.90;;;;;;5055541;28;20049;-73
2022/03/28 02:34:56;;;;;;;122.68;111.22;;;10.30;83.00;;;;;;5055760;28;20143;-73
2022/03/28 02:37:23;;;;;;;124.10;110.72;;;10.30;83.20;;;;;;5055642;28;20061;-73
2022/03/28 02:39:50;;;;;;;124.18;112.47;;;10.30;83.40;;;;;;5054161;28;20061;-73
2022/03/28 02:42:22;;;;;;;123.40;111.95;;;10.30;83.60;;;;;;5055369;28;20054;-73
2022/03/28 02:44:49;;;;;;;124.72;112.93;;;10.30;83.50;;;;;;5054048;28;20128;-73
2022/03/28 02:47:18;;;;;;;126.20;113.88;;;10.30;83.60;;;;;;5053494;28;20080;-73
2022/03/28 02:49:45;;;;;;;123.90;112.10;;;10.30;84.00;;;;;;5053876;28;20045;-73
2022/03/28 02:52:13;;;;;;;124.28;112.32;;;10.30;84.20;;;;;;5039635;28;20054;-73
2022/03/28 02:54:40;;;;;;;125.35;113.60;;;10.20;84.10;;;;;;5034040;28;20050;-73
2022/03/28 02:57:07;;;;;;;127.43;115.38;;;10.10;84.50;;;;;;5034085;28;20092;-73
2022/03/28 02:59:33;;;;;;;127.38;114.72;;;10.10;84.30;;;;;;5034031;28;20093;-73
2022/03/28 03:02:02;;;;;;;128.45;115.72;;;10.20;84.60;;;;;;5033994;28;20064;-73
2022/03/28 03:04:31;;;;;;;131.68;118.90;;;10.10;84.70;;;;;;5035334;28;20050;-73
2022/03/28 03:06:58;;;;;;;130.55;118.22;;;10.20;84.70;;;;;;5033506;28;20503;-73
2022/03/28 03:09:25;;;;;;;130.95;118.13;;;10.20;84.60;;;;;;5033748;28;20057;-73
2022/03/28 03:11:53;;;;;;;131.57;118.75;;;10.20;84.70;;;;;;5034033;28;20058;-73
2022/03/28 03:14:20;;;;;;;129.65;117.53;;;10.20;84.80;;;;;;5032715;28;20109;-73
2022/03/28 03:16:47;;;;;;;129.55;117.40;;;10.20;84.80;;;;;;5033809;28;20050;-73
2022/03/28 03:19:14;;;;;;;131.65;119.00;;;10.10;84.80;;;;;;5034849;28;20050;-73
2022/03/28 03:21:43;;;;;;;130.73;118.15;;;10.20;85.20;;;;;;5033631;28;20124;-73
2022/03/28 03:24:10;;;;;;;131.48;118.90;;;10.10;85.10;;;;;;5033769;28;20105;-73
2022/03/28 03:26:37;;;;;;;127.80;115.30;;;10.20;85.20;;;;;;5032631;28;20133;-73
2022/03/28 03:29:04;;;;;;;127.30;115.38;;;10.20;85.10;;;;;;5034636;28;20148;-73
2022/03/28 03:31:31;;;;;;;126.80;114.95;;;10.20;85.30;;;;;;5033293;28;20054;-73
2022/03/28 03:33:59;;;;;;;124.90;113.38;;;10.20;85.30;;;;;;5033128;28;20049;-73
2022/03/28 03:36:26;;;;;;;125.40;112.93;;;10.20;85.30;;;;;;5050361;28;20054;-73
2022/03/28 03:38:55;;;;;;;125.22;113.00;;;10.20;85.30;;;;;;5032917;28;20042;-73
2022/03/28 03:41:22;;;;;;;132.90;115.13;;;10.20;85.40;;;;;;5033624;28;20056;-73
2022/03/28 03:43:49;;;;;;;126.57;114.45;;;10.20;85.70;;;;;;5034599;28;20575;-73
2022/03/28 03:46:16;;;;;;;126.53;114.70;;;10.20;85.30;;;;;;5034592;28;20054;-73
2022/03/28 03:48:43;;;;;;;126.40;114.82;;;10.20;85.30;;;;;;5034101;28;20054;-73
2022/03/28 03:51:09;;;;;;;126.70;114.70;;;10.20;85.30;;;;;;5033538;28;20061;-73
2022/03/28 03:53:36;;;;;;;123.55;112.25;;;10.20;85.90;;;;;;5033111;28;20515;-73
2022/03/28 03:56:05;;;;;;;124.38;112.97;;;10.20;85.50;;;;;;5033114;28;20054;-73
2022/03/28 03:58:32;;;;;;;122.85;111.43;;;10.20;85.50;;;;;;5016362;28;20137;-73
2022/03/28 04:00:59;;;;;;;124.50;113.13;;;10.10;85.30;;;;;;5031914;28;20056;-73
2022/03/28 04:03:26;;;;;;;123.32;112.13;;;10.10;85.40;;;;;;5032886;28;20046;-73
2022/03/28 04:05:53;;;;;;;123.38;112.15;;;10.10;85.50;;;;;;5033241;28;20070;-73
2022/03/28 04:08:20;;;;;;;120.50;109.38;;;10.10;85.60;;;;;;5032797;28;20052;-73
2022/03/28 04:10:47;;;;;;;122.50;111.30;;;10.00;85.40;;;;;;5033051;28;20108;-73
2022/03/28 04:13:15;;;;;;;124.47;113.07;;;10.00;85.30;;;;;;5032761;28;20049;-73
2022/03/28 04:15:43;;;;;;;123.45;112.15;;;10.00;85.60;;;;;;5033043;28;20133;-73
2022/03/28 04:18:09;;;;;;;122.18;110.63;;;10.10;85.50;;;;;;5058464;22;20480;-73
2022/03/28 04:20:36;;;;;;;122.35;110.95;;;10.10;85.90;;;;;;5013555;28;20101;-73
2022/03/28 04:23:04;;;;;;;122.45;111.05;;;10.00;86.00;;;;;;5014175;28;20054;-73
2022/03/28 04:25:31;;;;;;;121.40;110.15;;;10.00;86.10;;;;;;5013794;28;20476;-73
2022/03/28 04:27:58;;;;;;;122.70;110.82;;;10.00;85.90;;;;;;5013757;28;20053;-73
2022/03/28 04:30:26;;;;;;;122.53;111.13;;;10.00;86.10;;;;;;5013885;28;20054;-73
2022/03/28 04:32:53;;;;;;;122.03;110.78;;;10.00;86.10;;;;;;5013854;28;20493;-73
2022/03/28 04:35:20;;;;;;;120.97;109.85;;;9.90;85.90;;;;;;5012836;28;20046;-73
2022/03/28 04:37:47;;;;;;;122.32;111.13;;;9.90;86.10;;;;;;5009533;28;20055;-73
2022/03/28 04:40:16;;;;;;;122.72;111.43;;;9.80;85.90;;;;;;5012746;28;20042;-73
2022/03/28 04:42:44;;;;;;;123.05;110.93;;;9.80;85.70;;;;;;5012729;28;20125;-73
2022/03/28 04:45:11;;;;;;;123.35;111.85;;;9.80;85.70;;;;;;5012877;28;20535;-73
2022/03/28 04:47:40;;;;;;;123.72;112.32;;;9.70;85.80;;;;;;5012430;28;20046;-73
2022/03/28 04:50:08;;;;;;;123.47;112.07;;;9.70;85.90;;;;;;5014119;28;20058;-73
2022/03/28 04:52:35;;;;;;;123.15;111.65;;;9.70;86.00;;;;;;5012496;28;20058;-73
2022/03/28 04:55:02;;;;;;;122.18;111.00;;;9.70;86.50;;;;;;5013866;28;20137;-73
2022/03/28 04:57:29;;;;;;;124.57;113.13;;;9.70;86.20;;;;;;5013388;28;20536;-73
2022/03/28 04:59:56;;;;;;;126.15;114.57;;;9.70;86.30;;;;;;5012343;28;20050;-73
2022/03/28 05:02:22;;;;;;;124.07;112.68;;;9.70;86.40;;;;;;4994674;28;20051;-73
2022/03/28 05:04:51;;;;;;;126.50;114.60;;;9.70;86.30;;;;;;5013167;28;20054;-73
2022/03/28 05:07:25;;;;;;;127.35;115.47;;;9.70;86.50;;;;;;5011661;28;20109;-73
2022/03/28 05:09:53;;;;;;;126.63;114.75;;;9.70;86.60;;;;;;5013497;28;20057;-73
2022/03/28 05:12:20;;;;;;;126.88;115.05;;;9.70;86.50;;;;;;5011928;28;20065;-73
2022/03/28 05:14:47;;;;;;;125.97;114.13;;;9.60;86.50;;;;;;5012357;28;20054;-73
2022/03/28 05:17:15;;;;;;;130.13;117.85;;;9.60;86.40;;;;;;5011783;28;20049;-73
2022/03/28 05:19:42;;;;;;;128.52;116.35;;;9.60;86.30;;;;;;5011860;28;20133;-73
2022/03/28 05:22:11;;;;;;;128.02;116.00;;;9.60;86.30;;;;;;5012294;28;20059;-73
2022/03/28 05:24:38;;;;;;;128.48;116.28;;;9.60;86.30;;;;;;5012155;28;20050;-73
2022/03/28 05:27:05;;;;;;;130.35;117.75;;;9.60;86.30;;;;;;4995586;28;20117;-73
2022/03/28 05:29:32;;;;;;;130.75;118.57;;;9.60;86.10;;;;;;5013397;28;20062;-73
2022/03/28 05:31:59;;;;;;;128.65;116.55;;;9.50;86.50;;;;;;5072167;22;20049;-73
2022/03/28 05:34:28;;;;;;;129.48;117.32;;;9.50;86.30;;;;;;5051085;28;20434;-73
2022/03/28 05:36:55;;;;;;;132.77;120.03;;;9.50;86.60;;;;;;5051177;28;20046;-73
2022/03/28 05:39:23;;;;;;;130.80;118.35;;;9.40;86.70;;;;;;5056412;28;20049;-73
2022/03/28 05:41:50;;;;;;;130.30;118.20;;;9.40;86.70;;;;;;5055191;28;20041;-73
2022/03/28 05:44:18;;;;;;;126.18;114.22;;;9.40;86.80;;;;;;5055049;28;20806;-73
2022/03/28 05:46:45;;;;;;;130.30;118.00;;;9.40;86.60;;;;;;5055101;28;20069;-73
2022/03/28 05:49:12;;;;;;;126.55;114.60;;;9.40;86.70;;;;;;5037833;28;20611;-73
2022/03/28 05:51:39;;;;;;;125.93;114.03;;;9.40;86.80;;;;;;5036324;28;20156;-73
2022/03/28 05:54:06;;;;;;;125.57;113.68;;;9.40;86.60;;;;;;5035823;28;20062;-73
2022/03/28 05:56:35;;;;;;;123.90;112.28;;;9.40;86.70;;;;;;5036339;28;20108;-73
2022/03/28 05:59:02;;;;;;;122.07;110.65;;;9.40;86.80;;;;;;5035912;28;20053;-73
2022/03/28 06:01:29;;;;;;;123.43;111.63;;;9.30;86.70;;;;;;5036243;28;20057;-73
2022/03/28 06:03:56;;;;;;;122.10;110.70;;;9.30;86.80;;;;;;5035628;28;20514;-73
2022/03/28 06:06:24;;;;;;;128.02;116.03;;;9.40;87.00;;;;;;5039314;28;20049;-73
2022/03/28 06:08:50;;;;;;;123.55;112.03;;;9.30;86.80;;;;;;5053533;28;20061;-73
2022/03/28 06:11:18;;;;;;;124.80;112.90;;;9.30;87.00;;;;;;5051792;28;20127;-73
2022/03/28 06:13:46;;;;;;;124.60;112.90;;;9.40;87.10;;;;;;5053681;28;20092;-73
2022/03/28 06:16:13;;;;;;;123.85;112.18;;;9.40;87.20;;;;;;5055150;28;20053;-73
2022/03/28 06:18:40;;;;;;;123.70;111.88;;;9.40;87.20;;;;;;5046962;28;20048;-73
2022/03/28 06:21:08;;;;;;;123.35;111.60;;;9.40;87.30;;;;;;5045239;28;20050;-73
2022/03/28 06:23:35;;;;;;;128.10;116.25;;;9.40;87.40;;;;;;5043893;28;20094;-73
2022/03/28 06:26:02;;;;;;;121.63;110.30;;;9.40;87.30;;;;;;5043777;28;20104;-73
2022/03/28 06:28:29;;;;;;;119.82;108.63;;;9.40;87.50;;;;;;5051095;28;20038;-72
2022/03/28 06:30:58;;;;;;;121.57;110.28;;;9.30;87.50;;;;;;5046804;28;20049;-73
2022/03/28 06:33:25;;;;;;;119.30;108.05;;;9.40;87.70;;;;;;5043681;28;20050;-74
2022/03/28 06:35:53;;;;;;;118.93;107.82;;;9.40;87.60;;;;;;5044954;28;20583;-73
2022/03/28 06:38:19;;;;;;;119.13;107.82;;;9.40;87.70;;;;;;5049260;28;20053;-73
2022/03/28 06:40:46;;;;;;;119.88;108.70;;;9.40;87.70;;;;;;5048375;28;20422;-73
2022/03/28 06:43:13;;;;;;;117.78;106.68;;;9.40;87.80;;;;;;5053930;28;20060;-73
2022/03/28 06:45:40;;;;;;;118.90;107.57;;;9.30;87.90;;;;;;5053357;28;20522;-74
2022/03/28 06:48:09;;;;;;;116.82;106.00;;;9.30;87.90;;;;;;5051015;28;20054;-73
2022/03/28 06:50:36;;;;;;;116.03;105.18;;;9.30;88.00;;;;;;5042813;28;20049;-73
2022/03/28 06:53:03;;;;;;;115.80;104.90;;;9.30;88.60;;;;;;5044697;28;20059;-73
2022/03/28 06:55:30;;;;;;;116.07;105.38;;;9.30;88.30;;;;;;5044715;28;20046;-73
2022/03/28 06:57:57;;;;;;;116.20;105.60;;;9.30;88.80;;;;;;5053829;28;20522;-73
2022/03/28 07:00:24;;;;;;;115.50;104.80;;;9.20;88.40;;;;;;5046655;28;20053;-74
2022/03/28 07:02:51;;;;;;;116.90;106.13;;;9.20;88.50;;;;;;5041060;28;20052;-73
2022/03/28 07:05:19;;;;;;;116.07;105.47;;;9.20;88.60;;;;;;5045192;28;20053;-75
2022/03/28 07:07:48;;;;;;;114.68;104.07;;;9.20;89.00;;;;;;5042436;28;20057;-74
2022/03/28 07:10:16;;;;;;;115.80;105.10;;;9.20;88.70;;;;;;5045566;28;20050;-74
2022/03/28 07:12:43;;;;;;;115.05;104.22;;;9.20;88.80;;;;;;5043846;28;20057;-73
2022/03/28 07:15:12;;;;;;;114.35;103.80;;;9.20;88.80;;;;;;5042613;28;20046;-73
2022/03/28 07:17:47;;;;;;;115.63;104.97;;;9.20;88.90;;;;;;5050464;28;20056;-72
2022/03/28 07:20:14;;;;;;;117.15;106.28;;;9.20;89.20;;;;;;5054859;28;20140;-72
2022/03/28 07:22:43;;;;;;;116.18;105.47;;;9.20;89.10;;;;;;5052427;28;20115;-73
2022/03/28 07:25:10;;;;;;;116.75;105.75;;;9.20;89.20;;;;;;5052200;28;20057;-73
2022/03/28 07:27:38;;;;;;;116.85;105.95;;;9.20;89.30;;;;;;5053335;28;20861;-73
2022/03/28 07:30:07;;;;;;;119.35;106.60;;;9.20;89.10;;;;;;5052240;28;20045;-73
2022/03/28 07:32:34;;;;;;;115.03;104.03;;;9.20;89.20;;;;;;5054542;28;20067;-73
2022/03/28 07:35:01;;;;;;;116.93;106.03;;;9.20;89.20;;;;;;5049517;28;20178;-73
2022/03/28 07:37:28;;;;;;;114.03;103.32;;;9.20;89.30;;;;;;5050013;28;20053;-73
2022/03/28 07:39:57;;;;;;;114.70;104.05;;;9.10;89.20;;;;;;5053781;28;20503;-72
2022/03/28 07:42:24;;;;;;;115.13;104.25;;;9.10;89.20;;;;;;5052184;28;20132;-72
2022/03/28 07:44:55;;;;;;;114.85;104.10;;;9.20;89.00;;;;;;5052550;28;20420;-72
2022/03/28 07:47:25;;;;;;;114.43;103.72;;;9.20;89.10;;;;;;5053261;28;20410;-73
2022/03/28 07:49:52;;;;;;;118.15;107.05;;;9.10;89.30;;;;;;5052042;28;20049;-74
2022/03/28 07:52:20;;;;;;;114.63;103.82;;;9.10;89.40;;;;;;5065879;28;20049;-74
2022/03/28 07:54:48;;;;;;;118.47;107.32;;;9.00;89.30;;;;;;5053412;28;20440;-73
2022/03/28 07:57:17;;;;;;;117.07;105.97;;;9.00;89.20;;;;;;5053604;28;20100;-74
2022/03/28 07:59:45;;;;;;;120.22;108.75;;;9.00;89.50;;;;;;5053042;28;20083;-72
2022/03/28 08:02:12;;;;;;;117.65;106.35;;;9.00;89.80;;;;;;5054047;28;20057;-72
2022/03/28 08:04:39;;;;;;;119.80;108.18;;;8.90;90.00;;;;;;5052720;28;20519;-73
2022/03/28 08:07:08;;;;;;;129.43;117.47;;;8.90;90.00;;;;;;5053296;28;20060;-73
2022/03/28 08:09:35;;;;;;;119.07;107.53;;;8.90;90.10;;;;;;5052940;28;20508;-73
2022/03/28 08:12:02;;;;;;;119.13;107.75;;;9.00;90.10;;;;;;5044943;28;20057;-72
2022/03/28 08:14:30;;;;;;;119.47;107.85;;;9.00;90.10;;;;;;5049715;28;20045;-72
2022/03/28 08:16:58;;;;;;;120.88;109.38;;;9.00;90.10;;;;;;5051330;28;20061;-75
2022/03/28 08:19:25;;;;;;;120.43;108.63;;;9.00;89.90;;;;;;5037343;28;20400;-75
2022/03/28 08:21:52;;;;;;;121.53;109.82;;;9.10;89.90;;;;;;5042601;28;20053;-73
2022/03/28 08:24:19;;;;;;;122.32;110.32;;;9.20;90.00;;;;;;5046548;28;20462;-72
2022/03/28 08:26:46;;;;;;;119.38;107.82;;;9.20;90.10;;;;;;5049602;28;20050;-72
2022/03/28 08:29:13;;;;;;;117.80;106.43;;;9.20;90.10;;;;;;5046555;28;20041;-72
2022/03/28 08:31:42;;;;;;;119.15;107.65;;;9.20;90.10;;;;;;5034310;28;20044;-72
2022/03/28 08:34:09;;;;;;;118.15;106.95;;;9.20;90.00;;;;;;5049164;28;20088;-72
2022/03/28 08:36:37;;;;;;;117.85;106.78;;;9.20;90.00;;;;;;5052861;28;20045;-72
2022/03/28 08:39:05;;;;;;;119.35;107.78;;;9.20;89.40;;;;;;5050711;28;20473;-72
2022/03/28 08:41:33;;;;;;;120.22;108.53;;;9.20;89.30;;;;;;5052675;28;20058;-72
2022/03/28 08:44:01;;;;;;;120.50;108.82;;;9.30;89.50;;;;;;5051362;28;20066;-72
2022/03/28 08:46:29;;;;;;;123.72;110.10;;;9.30;89.60;;;;;;5041791;28;20045;-73
2022/03/28 08:48:58;;;;;;;122.13;109.80;;;9.30;89.80;;;;;;5048115;28;20046;-72
2022/03/28 08:51:27;;;;;;;122.07;110.18;;;9.30;90.00;;;;;;5043723;28;20064;-73
2022/03/28 08:53:54;;;;;;;119.28;107.75;;;9.30;90.10;;;;;;5031798;28;20050;-73
2022/03/28 08:56:22;;;;;;;119.88;108.18;;;9.30;90.20;;;;;;5033421;28;20488;-73
2022/03/28 08:58:49;;;;;;;120.95;109.10;;;9.30;90.20;;;;;;5031657;28;20052;-73
2022/03/28 09:01:17;;;;;;;119.65;108.03;;;9.40;90.30;;;;;;5042508;28;20046;-73
2022/03/28 09:03:47;;;;;;;120.13;108.07;;;9.40;90.30;;;;;;5051850;28;20498;-74
2022/03/28 09:06:37;;;;;;;119.10;107.38;;;9.40;90.40;;;;;;5051946;28;20053;-73
2022/03/28 09:09:15;;;;;;;116.93;105.88;;;9.30;90.30;;;;;;5052050;28;20050;-73
2022/03/28 09:11:43;;;;;;;113.93;103.20;;;9.30;90.40;;;;;;5053143;28;20579;-72
2022/03/28 09:14:29;;;;;;;113.30;102.70;;;9.40;90.30;;;;;;5055034;28;20147;-72
2022/03/28 09:17:07;;;;;;;116.68;105.60;;;9.40;90.30;;;;;;5055310;28;20056;-72
2022/03/28 09:19:45;;;;;;;115.05;104.00;;;9.30;90.30;;;;;;5056859;28;20046;-72
2022/03/28 09:22:15;;;;;;;115.35;104.40;;;9.30;90.50;;;;;;4972340;28;20508;-75
2022/03/28 09:24:44;;;;;;;115.18;104.25;;;9.30;90.50;;;;;;5034789;28;20054;-74
2022/03/28 09:27:13;;;;;;;116.60;105.60;;;9.30;90.50;;;;;;5033246;28;20057;-73
2022/03/28 09:30:10;;;;;;;116.40;105.47;;;9.30;90.60;;;;;;5032744;28;20112;-72
2022/03/28 09:32:39;;;;;;;115.43;104.60;;;9.40;90.60;;;;;;4988903;28;20108;-72
2022/03/28 09:35:09;;;;;;;116.43;105.43;;;9.40;90.60;;;;;;5029615;28;20064;-72
2022/03/28 09:37:57;;;;;;;116.35;104.80;;;9.50;90.60;;;;;;5029685;28;20504;-73
2022/03/28 09:40:32;;;;;;;115.20;104.30;;;9.50;90.60;;;;;;5044238;28;20054;-73
2022/03/28 09:43:01;;;;;;;115.22;104.32;;;9.60;90.60;;;;;;5025692;28;20534;-72
2022/03/28 09:45:30;;;;;;;115.05;104.45;;;9.60;90.70;;;;;;5036246;28;20054;-74
2022/03/28 09:48:02;;;;;;;111.22;100.93;;;9.70;90.80;;;;;;5024176;28;20558;-72
2022/03/28 09:50:36;;;;;;;116.18;105.05;;;9.70;90.70;;;;;;5035197;28;20053;-72
2022/03/28 09:53:17;;;;;;;115.57;104.85;;;9.70;90.60;;;;;;5031094;28;20061;-74
2022/03/28 09:55:53;;;;;;;114.03;103.43;;;9.70;90.60;;;;;;5034594;28;20193;-72
2022/03/28 09:58:38;;;;;;;116.82;106.03;;;9.70;90.60;;;;;;5033797;28;20129;-72
2022/03/28 10:01:08;;;;;;;115.60;104.93;;;9.70;90.60;;;;;;5033774;28;20050;-73
2022/03/28 10:03:36;;;;;;;115.57;104.88;;;9.70;90.70;;;;;;5032893;28;20058;-72
2022/03/28 10:06:05;;;;;;;161.75;107.32;;;9.70;90.70;;;;;;5035644;28;20132;-75
2022/03/28 10:08:35;;;;;;;115.38;104.68;;;9.70;90.90;;;;;;5033760;28;20050;-72
2022/03/28 10:11:03;;;;;;;114.30;103.70;;;9.70;91.00;;;;;;5033879;28;20048;-72
2022/03/28 10:13:30;;;;;;;115.32;104.70;;;9.70;91.20;;;;;;5034864;28;20054;-73
2022/03/28 10:15:58;;;;;;;115.72;105.22;;;9.70;91.20;;;;;;5033350;28;20056;-73
2022/03/28 10:18:29;;;;;;;117.40;106.50;;;9.70;91.20;;;;;;5033052;28;20046;-76
2022/03/28 10:20:57;;;;;;;116.25;105.45;;;9.70;91.20;;;;;;5033979;28;20054;-74
2022/03/28 10:23:27;;;;;;;115.47;104.85;;;9.70;91.10;;;;;;5022823;28;20058;-73
2022/03/28 10:25:57;;;;;;;114.53;103.90;;;9.70;91.10;;;;;;5014890;28;20057;-74
2022/03/28 10:28:24;;;;;;;118.40;107.43;;;9.70;91.20;;;;;;5025647;28;21106;-73
2022/03/28 10:31:08;;;;;;;117.60;106.65;;;9.70;91.30;;;;;;5024906;28;20065;-73
2022/03/28 10:33:45;;;;;;;118.13;106.88;;;9.80;91.40;;;;;;5034393;28;20046;-73
2022/03/28 10:36:23;;;;;;;117.40;106.40;;;9.80;91.40;;;;;;5032603;28;20049;-75
2022/03/28 10:38:51;;;;;;;117.60;106.70;;;9.80;91.40;;;;;;5022435;28;20141;-75
2022/03/28 10:41:21;;;;;;;117.72;106.53;;;9.90;91.50;;;;;;5007585;28;20054;-75
2022/03/28 10:43:48;;;;;;;117.03;106.00;;;9.90;91.40;;;;;;5028060;28;20050;-75
2022/03/28 10:46:18;;;;;;;117.43;106.22;;;10.00;91.40;;;;;;5027153;28;20046;-76
2022/03/28 10:48:48;;;;;;;119.97;108.85;;;10.00;91.40;;;;;;5024871;28;20053;-76
2022/03/28 10:51:18;;;;;;;118.07;107.13;;;10.00;91.40;;;;;;5026432;28;20081;-75
2022/03/28 10:53:47;;;;;;;123.28;112.03;;;10.10;91.40;;;;;;5024621;28;20141;-76
2022/03/28 10:56:21;;;;;;;120.68;109.35;;;10.20;91.50;;;;;;5031140;28;20546;-74
2022/03/28 10:58:52;;;;;;;121.90;110.60;;;10.30;91.40;;;;;;5030910;28;20042;-75
2022/03/28 11:01:25;;;;;;;120.47;109.32;;;10.30;91.20;;;;;;5026053;28;20539;-75
2022/03/28 11:04:00;;;;;;;120.57;109.38;;;10.40;91.10;;;;;;5022586;28;20060;-75
2022/03/28 11:06:46;;;;;;;120.50;109.28;;;10.50;91.00;;;;;;5021628;28;20046;-73
2022/03/28 11:09:14;;;;;;;120.45;109.38;;;10.50;90.70;;;;;;5018937;28;20519;-74
2022/03/28 11:11:58;;;;;;;134.80;108.65;;;10.60;90.70;;;;;;5018558;28;20206;-74
2022/03/28 11:14:40;;;;;;;121.10;109.70;;;10.70;90.80;;;;;;5027236;28;20197;-74
2022/03/28 11:17:15;;;;;;;121.32;110.07;;;10.70;90.80;;;;;;5031134;28;20072;-74
2022/03/28 11:19:53;;;;;;;122.03;110.50;;;10.80;90.70;;;;;;5030939;28;20050;-74
2022/03/28 11:22:44;;;;;;;119.88;108.68;;;10.90;90.80;;;;;;5030491;28;20067;-74
2022/03/28 11:25:43;;;;;;;121.25;109.45;;;10.90;90.70;;;;;;5030433;28;20488;-75
2022/03/28 11:28:14;;;;;;;121.03;109.55;;;11.00;90.70;;;;;;4928957;28;20048;-74
2022/03/28 11:30:58;;;;;;;120.78;109.47;;;11.10;90.90;;;;;;5012407;28;20045;-74
2022/03/28 11:33:34;;;;;;;121.00;109.85;;;11.10;90.50;;;;;;5032078;28;20133;-76
2022/03/28 11:36:03;;;;;;;122.10;110.50;;;11.20;90.40;;;;;;5029626;28;20411;-74
2022/03/28 11:38:33;;;;;;;122.00;110.80;;;11.20;90.30;;;;;;5032266;28;20054;-76
2022/03/28 11:41:01;;;;;;;124.50;111.50;;;11.30;90.30;;;;;;5032115;28;20556;-76
2022/03/28 11:43:32;;;;;;;124.88;113.18;;;11.30;90.50;;;;;;5031255;28;20056;-78
2022/03/28 11:46:01;;;;;;;125.30;113.63;;;11.40;90.60;;;;;;5033057;28;20054;-77
2022/03/28 11:48:29;;;;;;;127.60;114.93;;;11.50;90.40;;;;;;5031102;28;20054;-77
2022/03/28 11:50:57;;;;;;;124.72;113.07;;;11.60;90.30;;;;;;5032689;28;20516;-78
2022/03/28 11:53:24;;;;;;;125.10;113.40;;;11.70;90.40;;;;;;5031858;28;20050;-77
2022/03/28 11:55:52;;;;;;;125.40;113.82;;;11.80;90.50;;;;;;5030868;28;20058;-77
2022/03/28 11:58:30;;;;;;;124.18;112.78;;;11.90;90.30;;;;;;5028052;28;20046;-76
2022/03/28 12:01:09;;;;;;;126.53;114.78;;;11.90;90.10;;;;;;5031433;28;20141;-78
2022/03/28 12:03:37;;;;;;;126.63;115.25;;;12.10;90.10;;;;;;5030901;28;20049;-78
2022/03/28 12:06:06;;;;;;;128.15;116.43;;;12.20;90.00;;;;;;5031758;28;20127;-78
2022/03/28 12:08:33;;;;;;;126.80;114.95;;;12.30;89.90;;;;;;5011070;28;20057;-78
2022/03/28 12:10:59;;;;;;;127.00;115.55;;;12.40;89.40;;;;;;5024794;28;20140;-78
2022/03/28 12:13:27;;;;;;;128.40;116.60;;;12.50;89.30;;;;;;5023273;28;20526;-77
2022/03/28 12:15:56;;;;;;;128.65;117.00;;;12.60;88.90;;;;;;5021941;28;20520;-77
2022/03/28 12:18:24;;;;;;;125.95;114.65;;;12.70;88.50;;;;;;5015295;28;20137;-77
2022/03/28 12:20:52;;;;;;;125.63;114.40;;;12.70;88.20;;;;;;5012696;28;20057;-78
2022/03/28 12:23:22;;;;;;;127.82;115.68;;;12.80;88.40;;;;;;5012547;28;20053;-77